Latest Weather Observations for Warruwi

IDD60801

Issued at 6:01 am CST Monday 3 August 2015 (issued every 30 minutes, with the page automatically refreshed every 10 minutes)

About weather observations | Map of weather stations | Latest weather observations for NT | Other Formats
Station Details ID: 014401 Name: WARRUWI AIRPORT Lat: -11.65 Lon: 133.38 Height: 19.2 m
Data from the previous 72 hours. | See also: Recent months at Warruwi
Date/Time
CST
Temp
°C
App
Temp
°C
Dew
Point
Rel
Hum
%
Delta-T
°C
Wind Press
QNH
hPa
Press
MSL
hPa
Rain
since 9 am
mm
Dir
 
Spd
km/h
Gust
km/h
Spd
kts
Gust
kts
03/06:00am 23.0 23.5 18.3 75 2.9 ESE 13 20 7 11 1015.5 1015.4 0.0
03/05:30am 23.0 23.9 18.5 76 2.8 ESE 11 15 6 8 1015.5 1015.4 0.0
03/05:00am 23.3 23.8 18.4 74 3.1 ESE 13 20 7 11 1015.6 1015.5 0.0
03/04:30am 23.4 24.0 18.7 75 3.0 ESE 13 24 7 13 1015.3 1015.2 0.0
03/04:00am 23.6 23.8 18.5 73 3.2 ESE 15 20 8 11 1015.3 1015.2 0.0
03/03:30am 23.8 24.2 18.9 74 3.1 SE 15 20 8 11 1015.6 1015.5 0.0
03/03:00am 24.1 25.3 20.0 78 2.6 SE 13 20 7 11 1015.7 1015.6 0.0
03/02:30am 24.4 26.0 20.7 80 2.4 ESE 13 19 7 10 1015.8 1015.7 0.0
03/02:00am 24.6 26.4 21.1 81 2.3 ESE 13 17 7 9 1016.0 1015.9 0.0
03/01:30am 24.8 26.7 21.3 81 2.3 ESE 13 19 7 10 1016.2 1016.1 0.0
03/01:00am 24.8 26.3 21.3 81 2.3 ESE 15 20 8 11 1016.3 1016.2 0.0
03/12:30am 24.8 26.8 21.5 82 2.2 E 13 19 7 10 1016.2 1016.1 0.0
03/12:00am 24.8 26.2 21.1 80 2.4 E 15 22 8 12 1016.2 1016.1 0.0
 
Date/Time
CST
Temp
°C
App
Temp
°C
Dew
Point
Rel
Hum
%
Delta-T
°C
Wind Press
QNH
hPa
Press
MSL
hPa
Rain
since 9 am
mm
Dir
 
Spd
km/h
Gust
km/h
Spd
kts
Gust
kts
02/11:30pm 24.8 26.3 21.3 81 2.3 E 15 24 8 13 1016.4 1016.3 0.0
02/11:00pm 24.9 26.6 21.0 79 2.6 E 13 20 7 11 1016.4 1016.3 0.0
02/10:30pm 24.8 27.0 21.1 80 2.4 E 11 17 6 9 1016.3 1016.2 0.0
02/10:00pm 24.7 26.7 20.8 79 2.6 ENE 11 17 6 9 1016.2 1016.1 0.0
02/09:30pm 24.8 26.7 20.5 77 2.8 E 11 15 6 8 1015.9 1015.8 0.0
02/09:00pm 25.0 26.4 20.3 75 3.1 E 13 20 7 11 1015.8 1015.7 0.0
02/08:30pm 25.1 25.9 19.9 73 3.4 E 15 22 8 12 1015.4 1015.3 0.0
02/08:00pm 25.2 25.5 19.6 71 3.6 E 17 24 9 13 1015.1 1015.0 0.0
02/07:30pm 25.4 25.6 19.3 69 3.9 E 17 24 9 13 1014.8 1014.7 0.0
02/07:00pm 25.5 25.8 19.6 70 3.8 E 17 24 9 13 1014.5 1014.4 0.0
02/06:30pm 25.6 25.2 19.3 68 4.0 E 20 30 11 16 1014.2 1014.1 0.0
02/06:00pm 26.1 26.2 20.0 69 4.0 E 19 26 10 14 1014.2 1014.1 0.0
02/05:30pm 26.0 26.1 19.9 69 4.0 E 19 26 10 14 1014.1 1014.0 0.0
02/05:00pm 26.2 26.0 20.5 71 3.7 E 22 32 12 17 1014.2 1014.1 0.0
02/04:30pm 27.2 27.1 20.0 64 4.7 E 20 28 11 15 1014.2 1014.1 0.0
02/04:00pm 26.9 27.9 20.3 67 4.3 E 15 24 8 13 1014.2 1014.1 0.0
02/03:30pm 27.3 28.2 20.1 64 4.7 E 15 20 8 11 1014.4 1014.3 0.0
02/03:00pm 26.6 26.7 20.0 67 4.3 E 19 24 10 13 1014.5 1014.4 0.0
02/02:30pm 27.0 27.4 19.1 62 5.1 E 15 26 8 14 1014.9 1014.8 0.0
02/02:00pm 26.9 26.9 19.0 62 5.1 E 17 24 9 13 1015.5 1015.4 0.0
02/01:30pm 27.8 27.9 19.1 59 5.6 E 17 26 9 14 1015.8 1015.7 0.0
02/01:00pm 27.6 28.3 19.7 62 5.1 E 15 22 8 12 1016.0 1015.9 0.0
02/12:30pm 26.9 27.5 18.7 60 5.2 E 13 19 7 10 1016.3 1016.2 0.0
02/12:00pm 27.3 27.3 18.9 60 5.4 ESE 17 24 9 13 1016.8 1016.7 0.0
02/11:30am 27.0 26.3 18.6 60 5.4 ESE 20 30 11 16 1017.1 1017.0 0.0
02/11:00am 26.6 26.0 18.5 61 5.2 ESE 19 26 10 14 1017.3 1017.2 0.0
02/10:30am 25.9 25.1 18.1 62 4.9 SE 19 24 10 13 1017.5 1017.4 0.0
02/10:00am 25.5 24.8 18.2 64 4.6 ESE 19 26 10 14 1017.5 1017.4 0.0
02/09:30am 25.1 24.8 18.3 66 4.3 ESE 17 22 9 12 1017.5 1017.4 0.0
02/09:00am 24.3 23.5 18.0 68 3.9 SE 19 26 10 14 1017.6 1017.5 0.0
02/08:30am 23.7 23.3 18.1 71 3.5 SE 17 24 9 13 1017.4 1017.3 0.0
02/08:00am 23.2 22.4 18.1 73 3.2 ESE 19 26 10 14 1017.2 1017.1 0.0
02/07:30am 22.5 21.7 18.1 76 2.7 ESE 19 28 10 15 1016.9 1016.8 0.0
02/07:00am 22.2 21.4 18.0 77 2.6 ESE 19 28 10 15 1016.4 1016.3 0.0
02/06:30am 22.0 22.3 18.0 78 2.5 ESE 13 19 7 10 1016.2 1016.1 0.0
02/06:00am 22.1 21.9 17.5 75 2.8 SE 15 24 8 13 1015.9 1015.8 0.0
02/05:30am 22.3 21.6 17.4 74 3.0 ESE 17 24 9 13 1015.7 1015.6 0.0
02/05:00am 22.5 21.4 17.4 73 3.2 ESE 19 28 10 15 1015.6 1015.5 0.0
02/04:30am 22.8 22.2 17.5 72 3.3 SE 17 24 9 13 1015.3 1015.2 0.0
02/04:00am 22.9 21.9 17.6 72 3.3 SE 19 26 10 14 1015.0 1014.9 0.0
02/03:30am 23.1 22.9 18.4 75 3.0 SE 17 22 9 12 1014.9 1014.8 0.0
02/03:00am 23.4 23.8 18.9 76 2.9 SE 15 20 8 11 1014.7 1014.6 0.0
02/02:30am 24.1 23.6 17.8 68 3.9 ESE 17 24 9 13 1014.7 1014.6 0.0
02/02:00am 24.6 22.9 17.3 64 4.5 ESE 22 32 12 17 1014.9 1014.8 0.0
02/01:30am 24.8 24.2 19.8 74 3.2 E 22 32 12 17 1015.0 1014.9 0.0
02/01:00am 24.8 25.1 20.5 77 2.8 E 19 26 10 14 1015.1 1015.0 0.0
02/12:30am 24.9 25.2 20.4 76 2.9 E 19 26 10 14 1015.2 1015.1 0.0
02/12:00am 24.9 26.4 20.6 77 2.8 E 13 20 7 11 1015.3 1015.2 0.0
 
Date/Time
CST
Temp
°C
App
Temp
°C
Dew
Point
Rel
Hum
%
Delta-T
°C
Wind Press
QNH
hPa
Press
MSL
hPa
Rain
since 9 am
mm
Dir
 
Spd
km/h
Gust
km/h
Spd
kts
Gust
kts
01/11:30pm 25.0 26.5 20.5 76 2.9 ENE 13 19 7 10 1015.3 1015.2 0.0
01/11:00pm 24.7 27.4 20.6 78 2.7 ENE 7 17 4 9 1015.2 1015.1 0.0
01/10:30pm 24.5 27.4 21.0 81 2.3 ENE 7 15 4 8 1015.2 1015.1 0.0
01/10:00pm 24.4 27.3 21.1 82 2.2 ENE 7 15 4 8 1015.1 1015.0 0.0
01/09:30pm 24.1 27.2 21.0 83 2.0 ENE 6 9 3 5 1014.8 1014.7 0.0
01/09:00pm 24.1 27.3 20.6 81 2.3 ENE 4 6 2 3 1014.5 1014.4 0.0
01/08:30pm 24.2 27.0 20.5 80 2.4 NE 6 9 3 5 1014.2 1014.1 0.0
01/08:00pm 24.2 27.3 20.3 79 2.5 NE 4 7 2 4 1014.0 1013.9 0.0
01/07:30pm 24.4 27.5 20.3 78 2.7 ENE 4 7 2 4 1013.7 1013.6 0.0
01/07:00pm 24.6 27.1 19.9 75 3.0 ENE 6 11 3 6 1013.3 1013.2 0.0
01/06:30pm 25.0 27.1 19.4 71 3.6 ENE 7 15 4 8 1013.3 1013.2 0.0
01/06:00pm 25.6 27.1 19.7 70 3.8 ENE 11 19 6 10 1013.4 1013.3 0.0
01/05:30pm 26.4 27.2 19.8 67 4.3 ENE 15 28 8 15 1013.3 1013.2 0.0
01/05:00pm 26.5 26.7 19.4 65 4.6 E 17 28 9 15 1013.1 1013.0 0.0
01/04:30pm 27.0 27.7 19.6 64 4.8 ENE 15 22 8 12 1013.1 1013.0 0.0
01/04:00pm 27.4 27.5 19.2 61 5.3 E 17 30 9 16 1013.1 1013.0 0.0
01/03:30pm 27.4 27.8 18.9 59 5.5 ENE 15 22 8 12 1013.2 1013.1 0.0
01/03:00pm 27.8 28.1 19.6 61 5.3 E 17 24 9 13 1013.5 1013.4 0.0
01/02:30pm 26.5 26.4 19.6 66 4.5 E 19 28 10 15 1013.9 1013.8 0.0
01/02:00pm 26.8 27.2 19.9 66 4.5 E 17 28 9 15 1014.3 1014.2 0.0
01/01:30pm 26.6 26.2 19.0 63 4.9 E 19 24 10 13 1014.6 1014.5 0.0
01/01:00pm 27.2 27.7 19.3 62 5.1 E 15 22 8 12 1015.1 1015.0 0.0
01/12:30pm 26.8 27.5 19.7 65 4.6 E 15 20 8 11 1015.5 1015.4 0.0
01/12:00pm 26.9 27.1 19.3 63 4.9 E 17 24 9 13 1015.7 1015.6 0.0
01/11:30am 26.6 27.3 19.7 66 4.5 ESE 15 20 8 11 1015.9 1015.8 0.0
01/11:00am 25.9 26.9 19.5 68 4.1 ESE 13 19 7 10 1016.3 1016.2 0.0
01/10:30am 25.9 26.1 20.2 71 3.7 ESE 19 22 10 12 1016.7 1016.6 0.0
01/10:00am 25.9 27.1 20.7 73 3.4 ESE 15 20 8 11 1016.7 1016.6 0.0
01/09:30am 24.6 25.8 19.9 75 3.0 SE 13 19 7 10 1016.7 1016.6 0.0
01/09:00am 23.9 25.1 19.8 78 2.6 SE 13 20 7 11 1016.4 1016.3 0.0
01/08:30am 23.3 24.4 19.7 80 2.3 SE 13 20 7 11 1016.0 1015.9 0.0
01/08:00am 22.8 24.0 19.8 83 1.9 SE 13 19 7 10 1015.7 1015.6 0.0
01/07:30am 21.9 23.6 19.3 85 1.7 SSE 9 13 5 7 1015.4 1015.3 0.0
01/07:00am 21.8 23.5 19.4 86 1.5 SE 9 13 5 7 1015.1 1015.0 0.0
01/06:30am 22.1 23.5 19.6 86 1.6 SE 11 17 6 9 1014.8 1014.7 0.0
01/06:00am 22.4 23.6 19.9 86 1.6 ESE 13 19 7 10 1014.6 1014.5 0.0
01/05:30am 22.5 24.0 19.7 84 1.8 ESE 11 19 6 10 1014.5 1014.4 0.0
01/05:00am 22.6 23.5 19.2 81 2.2 ESE 13 20 7 11 1014.2 1014.1 0.0
01/04:30am 22.8 23.7 19.2 80 2.3 ESE 13 19 7 10 1014.3 1014.2 0.0
01/04:00am 23.0 23.4 19.0 78 2.5 ESE 15 22 8 12 1014.3 1014.2 0.0
01/03:30am 23.3 23.8 19.2 78 2.6 SE 15 24 8 13 1014.4 1014.3 0.0
01/03:00am 23.5 23.5 19.0 76 2.9 SE 17 24 9 13 1014.5 1014.4 0.0
01/02:30am 23.9 23.7 19.4 76 2.9 SE 19 28 10 15 1014.5 1014.4 0.0
01/02:00am 24.3 24.0 19.6 75 3.0 ESE 20 30 11 16 1014.6 1014.5 0.0
01/01:30am 24.7 23.8 20.6 78 2.7 E 26 37 14 20 1014.7 1014.6 0.0
01/01:00am 24.7 24.9 21.4 82 2.2 E 22 30 12 16 1015.0 1014.9 0.0
01/12:30am 24.8 25.4 21.1 80 2.4 E 19 32 10 17 1015.2 1015.1 0.0
01/12:00am 25.0 26.1 21.3 80 2.4 E 17 30 9 16 1015.1 1015.0 0.0
 
Date/Time
CST
Temp
°C
App
Temp
°C
Dew
Point
Rel
Hum
%
Delta-T
°C
Wind Press
QNH
hPa
Press
MSL
hPa
Rain
since 9 am
mm
Dir
 
Spd
km/h
Gust
km/h
Spd
kts
Gust
kts
31/11:30pm 24.9 26.0 21.2 80 2.4 E 17 26 9 14 1014.9 1014.8 0.0
31/11:00pm 24.9 26.6 21.6 82 2.2 E 15 22 8 12 1014.8 1014.7 0.0
31/10:30pm 25.1 26.5 21.8 82 2.2 E 17 26 9 14 1014.9 1014.8 0.0
31/10:00pm 24.9 26.9 21.6 82 2.2 E 13 24 7 13 1014.6 1014.5 0.0
31/09:30pm 25.0 27.0 21.5 81 2.3 E 13 20 7 11 1014.4 1014.3 0.0
31/09:00pm 24.9 27.4 21.8 83 2.1 E 11 19 6 10 1014.0 1013.9 0.0
31/08:30pm 24.9 27.3 21.6 82 2.2 ENE 11 17 6 9 1013.6 1013.5 0.0
31/08:00pm 24.9 27.2 21.4 81 2.3 E 11 20 6 11 1013.2 1013.1 0.0
31/07:30pm 24.9 27.5 21.2 80 2.4 E 9 15 5 8 1012.9 1012.8 0.0
31/07:00pm 25.0 27.1 20.9 78 2.7 ENE 11 19 6 10 1012.7 1012.6 0.0
31/06:30pm 25.3 27.0 21.0 77 2.8 E 13 22 7 12 1012.6 1012.5 0.0
31/06:00pm 25.7 27.3 20.7 74 3.3 E 13 20 7 11 1012.5 1012.4 0.0
31/05:30pm 26.1 26.6 20.0 69 4.0 E 17 28 9 15 1012.2 1012.1 0.0
31/05:00pm 26.9 27.5 20.3 67 4.3 ENE 17 26 9 14 1011.9 1011.8 0.0
31/04:30pm 27.2 28.5 20.8 68 4.2 E 15 22 8 12 1012.0 1011.9 0.0
31/04:00pm 27.2 27.8 20.3 66 4.5 E 17 28 9 15 1012.1 1012.0 0.0
31/03:30pm 27.6 28.0 19.9 63 5.0 E 17 28 9 15 1012.3 1012.2 0.0
31/03:00pm 27.3 28.0 20.4 66 4.5 ENE 17 26 9 14 1012.7 1012.6 0.0
31/02:30pm 27.3 27.7 20.9 68 4.2 E 20 33 11 18 1013.1 1013.0 0.0
31/02:00pm 27.1 27.0 20.7 68 4.2 E 22 32 12 17 1013.7 1013.6 0.0
31/01:30pm 27.4 27.6 20.5 66 4.5 E 20 32 11 17 1014.2 1014.1 0.0
31/01:00pm 26.8 27.2 20.9 70 3.9 E 20 32 11 17 1014.6 1014.5 0.0
31/12:30pm 27.2 27.1 20.8 68 4.2 E 22 32 12 17 1015.2 1015.1 0.0
31/12:00pm 27.4 27.6 20.5 66 4.5 E 20 32 11 17 1015.6 1015.5 0.0
31/11:30am 27.2 27.3 20.3 66 4.5 E 20 30 11 16 1015.9 1015.8 0.0
31/11:00am 26.8 26.4 20.2 67 4.3 E 22 32 12 17 1016.1 1016.0 0.0
31/10:30am 26.9 27.0 20.3 67 4.3 E 20 30 11 16 1016.4 1016.3 0.0
31/10:00am 25.8 26.1 20.4 72 3.5 E 19 28 10 15 1016.5 1016.4 0.0
31/09:30am 25.3 24.8 19.9 72 3.5 E 22 30 12 16 1016.6 1016.5 0.0
31/09:00am 24.9 25.5 20.2 75 3.1 ESE 17 26 9 14 1016.3 1016.2 0.0
31/08:30am 24.3 24.9 20.2 78 2.7 ESE 17 24 9 13 1016.3 1016.2 0.0
31/08:00am 23.7 24.6 20.0 80 2.4 ESE 15 22 8 12 1016.2 1016.1 0.0
31/07:30am 22.9 23.7 19.9 83 1.9 ESE 15 22 8 12 1016.0 1015.9 0.0
31/07:00am 22.5 22.5 19.7 84 1.8 ESE 19 26 10 14 1015.9 1015.8 0.0
31/06:30am 22.5 23.2 19.7 84 1.8 ESE 15 26 8 14 1015.7 1015.6 0.0

Other Formats:

Comma delimited format used in spreadsheet applications
http://www.bom.gov.au/fwo/IDD60801/IDD60801.94139.axf

JavaScript Object Notation format (JSON) in row-major order
http://www.bom.gov.au/fwo/IDD60801/IDD60801.94139.json